This is the latest recevied weather packets stored in our database for station/object DF7ER-12. If no packets are shown the sender has not sent any weather packets the latest 10 day(s).
| Time | Temp. | Humidity | Pressure | Rain* | Wind** | Luminosity | Snow |
|---|---|---|---|---|---|---|---|
| 1788006080 | 26.11° C | 66% | 999.9 hPa | - | - | - | - |
| 1788005781 | 26.67° C | 67% | 999.9 hPa | - | - | - | - |
| 1788005481 | 27.22° C | 66% | 1000.1 hPa | - | - | - | - |
| 1788005181 | 26.11° C | 67% | 1000 hPa | - | - | - | - |
| 1788004880 | 26.11° C | 70% | 1000 hPa | - | - | - | - |
| 1788004580 | 26.11° C | 68% | 1000 hPa | - | - | - | - |
| 1788004280 | 26.11° C | 68% | 1000 hPa | - | - | - | - |
| 1788003981 | 27.22° C | 68% | 1000 hPa | - | - | - | - |
| 1788003680 | 25.56° C | 70% | 1000 hPa | - | - | - | - |
| 1788003381 | 26.11° C | 70% | 1000 hPa | - | - | - | - |
| 1788003080 | 25.56° C | 71% | 1000 hPa | - | - | - | - |
| 1788002781 | 26.11° C | 70% | 1000.1 hPa | - | - | - | - |
| 1788002480 | 26.67° C | 67% | 1000.2 hPa | - | - | - | - |
| 1788002180 | 26.11° C | 69% | 1000.1 hPa | - | - | - | - |
| 1788001881 | 25.56° C | 70% | 1000.2 hPa | - | - | - | - |
| 1788001580 | 25° C | 71% | 1000.2 hPa | - | - | - | - |
| 1788001281 | 25.56° C | 70% | 1000.3 hPa | - | - | - | - |
| 1788000981 | 24.44° C | 72% | 1000.2 hPa | - | - | - | - |
| 1788000680 | 24.44° C | 71% | 1000.3 hPa | - | - | - | - |
| 1788000380 | 25° C | 71% | 1000.2 hPa | - | - | - | - |
| 1788000080 | 24.44° C | 72% | 1000.2 hPa | - | - | - | - |
| 1787999780 | 24.44° C | 72% | 1000.3 hPa | - | - | - | - |
| 1787999481 | 23.89° C | 73% | 1000.3 hPa | - | - | - | - |
| 1787999180 | 23.89° C | 74% | 1000.4 hPa | - | - | - | - |
| 1787998880 | 23.33° C | 77% | 1000.4 hPa | - | - | - | - |
* Rain since midnight (hover to see other rain measurements)
** Current wind speed in m/s (hover to see current wind gust speed)